| Date | Time | Temp. (oF) | Dew Point (oF) | Rel. Hum. (%) | Press. (in.) | Wind Dir. | Wind Speed (mph) | Hourly Rainfall (in.) |
|
|---|---|---|---|---|---|---|---|---|---|
| 1 | 08/05 | 00:00 | 76 | 72 | 88 | 29.74 | WSW | 4 | 0.00 |
| 2 | 08/04 | 23:00 | 78 | 74 | 88 | 29.73 | SSW | 2 | 0.00 |
| 3 | 08/04 | 22:00 | 81 | 72 | 76 | 29.74 | WSW | 4 | 0.00 |
| 4 | 08/04 | 21:00 | 83 | 77 | 84 | 29.75 | ESE | 1 | 0.00 |
| 5 | 08/04 | 20:00 | 85 | 77 | 79 | 29.76 | S | 4 | 0.00 |
| 6 | 08/04 | 19:00 | 88 | 77 | 72 | 29.75 | S | 3 | 0.00 |
| 7 | 08/04 | 18:00 | 90 | 77 | 68 | 29.74 | ESE | 5 | 0.00 |
| 8 | 08/04 | 17:00 | 91 | 77 | 65 | 29.75 | SE | 5 | 0.00 |
| 9 | 08/04 | 16:00 | 91 | 77 | 65 | 29.77 | SSE | 6 | 0.00 |
| 10 | 08/04 | 15:00 | 89 | 74 | 63 | 29.81 | S | 5 | 0.00 |
| 11 | 08/04 | 14:00 | 89 | 76 | 66 | 29.83 | SSW | 3 | 0.00 |
| 12 | 08/04 | 13:00 | 87 | 75 | 69 | 29.85 | SSW | 7 | 0.00 |
| 13 | 08/04 | 12:00 | 86 | 76 | 74 | 29.87 | SSW | 3 | 0.00 |
| 14 | 08/04 | 11:00 | 84 | 76 | 79 | 29.88 | SSW | 6 | 0.00 |
| 15 | 08/04 | 10:00 | 82 | 75 | 82 | 29.89 | SW | 7 | 0.00 |
| 16 | 08/04 | 09:00 | 79 | 74 | 85 | 29.91 | S | 3 | 0.00 |
| 17 | 08/04 | 08:00 | 78 | 74 | 88 | 29.91 | S | 3 | 0.00 |
| 18 | 08/04 | 07:00 | 76 | 72 | 90 | 29.91 | SSW | 0 | 0.00 |
| 19 | 08/04 | 06:00 | 76 | 72 | 90 | 29.91 | S | 0 | 0.00 |
| 20 | 08/04 | 05:00 | 76 | 72 | 90 | 29.92 | SW | 0 | 0.00 |
| 21 | 08/04 | 04:00 | 76 | 72 | 88 | 29.91 | S | 5 | 0.00 |
| 22 | 08/04 | 03:00 | 77 | 73 | 88 | 29.92 | SSW | 3 | 0.00 |
| 23 | 08/04 | 02:00 | 77 | 73 | 89 | 29.94 | SSW | 4 | 0.00 |
| 24 | 08/04 | 01:00 | 77 | 73 | 89 | 29.96 | SSW | 0 | 0.00 |